sensor_id;sensor_type;location;lat;lon;timestamp;P1;durP1;ratioP1;P2;durP2;ratioP2
20026;SDS011;10174;42.688;23.344;2023-05-18T00:00:10;10.55;;;6.30;;
20026;SDS011;10174;42.688;23.344;2023-05-18T00:02:39;11.90;;;6.78;;
20026;SDS011;10174;42.688;23.344;2023-05-18T00:05:05;15.57;;;6.47;;
20026;SDS011;10174;42.688;23.344;2023-05-18T00:07:32;14.93;;;5.43;;
20026;SDS011;10174;42.688;23.344;2023-05-18T00:10:01;7.70;;;4.95;;
20026;SDS011;10174;42.688;23.344;2023-05-18T00:12:27;8.77;;;4.25;;
20026;SDS011;10174;42.688;23.344;2023-05-18T00:14:52;11.65;;;4.70;;
20026;SDS011;10174;42.688;23.344;2023-05-18T00:17:18;8.43;;;4.68;;
20026;SDS011;10174;42.688;23.344;2023-05-18T00:19:44;10.63;;;4.28;;
20026;SDS011;10174;42.688;23.344;2023-05-18T00:22:10;9.10;;;4.15;;
20026;SDS011;10174;42.688;23.344;2023-05-18T00:24:46;5.32;;;2.60;;
20026;SDS011;10174;42.688;23.344;2023-05-18T00:27:12;4.35;;;1.70;;
20026;SDS011;10174;42.688;23.344;2023-05-18T00:29:37;3.83;;;2.00;;
20026;SDS011;10174;42.688;23.344;2023-05-18T00:32:03;3.45;;;1.30;;
20026;SDS011;10174;42.688;23.344;2023-05-18T00:34:28;3.85;;;1.10;;
20026;SDS011;10174;42.688;23.344;2023-05-18T00:36:54;2.17;;;1.20;;
20026;SDS011;10174;42.688;23.344;2023-05-18T00:39:19;1.70;;;1.20;;
20026;SDS011;10174;42.688;23.344;2023-05-18T00:41:45;1.02;;;0.80;;
20026;SDS011;10174;42.688;23.344;2023-05-18T00:44:10;5.82;;;1.02;;
20026;SDS011;10174;42.688;23.344;2023-05-18T00:46:36;3.55;;;1.00;;
20026;SDS011;10174;42.688;23.344;2023-05-18T00:49:01;1.75;;;1.08;;
20026;SDS011;10174;42.688;23.344;2023-05-18T00:51:27;4.10;;;1.30;;
20026;SDS011;10174;42.688;23.344;2023-05-18T00:53:54;3.72;;;1.67;;
20026;SDS011;10174;42.688;23.344;2023-05-18T00:56:20;3.28;;;1.67;;
20026;SDS011;10174;42.688;23.344;2023-05-18T00:58:53;3.50;;;1.70;;
20026;SDS011;10174;42.688;23.344;2023-05-18T01:01:22;2.80;;;2.10;;
20026;SDS011;10174;42.688;23.344;2023-05-18T01:03:52;3.90;;;2.25;;
20026;SDS011;10174;42.688;23.344;2023-05-18T01:06:20;5.82;;;2.90;;
20026;SDS011;10174;42.688;23.344;2023-05-18T01:08:49;6.93;;;2.92;;
20026;SDS011;10174;42.688;23.344;2023-05-18T01:11:18;4.30;;;3.20;;
20026;SDS011;10174;42.688;23.344;2023-05-18T01:16:17;6.60;;;2.88;;
20026;SDS011;10174;42.688;23.344;2023-05-18T01:21:55;10.52;;;3.47;;
20026;SDS011;10174;42.688;23.344;2023-05-18T01:24:37;7.70;;;3.42;;
20026;SDS011;10174;42.688;23.344;2023-05-18T01:27:07;4.30;;;3.20;;
20026;SDS011;10174;42.688;23.344;2023-05-18T01:29:33;7.07;;;3.50;;
20026;SDS011;10174;42.688;23.344;2023-05-18T01:31:59;7.22;;;2.90;;
20026;SDS011;10174;42.688;23.344;2023-05-18T01:34:24;3.95;;;3.35;;
20026;SDS011;10174;42.688;23.344;2023-05-18T01:36:50;3.78;;;2.65;;
20026;SDS011;10174;42.688;23.344;2023-05-18T01:39:15;4.35;;;2.97;;
20026;SDS011;10174;42.688;23.344;2023-05-18T01:41:50;8.98;;;3.13;;
20026;SDS011;10174;42.688;23.344;2023-05-18T01:44:23;5.10;;;3.13;;
20026;SDS011;10174;42.688;23.344;2023-05-18T01:49:26;5.93;;;3.35;;
20026;SDS011;10174;42.688;23.344;2023-05-18T01:51:57;8.10;;;4.20;;
20026;SDS011;10174;42.688;23.344;2023-05-18T01:54:28;6.35;;;3.47;;
20026;SDS011;10174;42.688;23.344;2023-05-18T01:56:56;4.55;;;3.72;;
20026;SDS011;10174;42.688;23.344;2023-05-18T01:59:22;6.95;;;3.78;;
20026;SDS011;10174;42.688;23.344;2023-05-18T02:01:48;9.32;;;3.72;;
20026;SDS011;10174;42.688;23.344;2023-05-18T02:04:14;9.10;;;4.28;;
20026;SDS011;10174;42.688;23.344;2023-05-18T02:06:40;6.40;;;4.40;;
20026;SDS011;10174;42.688;23.344;2023-05-18T02:09:05;6.90;;;4.28;;
20026;SDS011;10174;42.688;23.344;2023-05-18T02:11:31;6.03;;;3.88;;
20026;SDS011;10174;42.688;23.344;2023-05-18T02:13:56;6.15;;;3.92;;
20026;SDS011;10174;42.688;23.344;2023-05-18T02:16:21;7.55;;;4.25;;
20026;SDS011;10174;42.688;23.344;2023-05-18T02:18:47;4.95;;;3.60;;
20026;SDS011;10174;42.688;23.344;2023-05-18T02:21:13;9.30;;;3.65;;
20026;SDS011;10174;42.688;23.344;2023-05-18T02:23:39;5.72;;;3.63;;
20026;SDS011;10174;42.688;23.344;2023-05-18T02:26:05;7.22;;;4.38;;
20026;SDS011;10174;42.688;23.344;2023-05-18T02:28:30;4.95;;;3.70;;
20026;SDS011;10174;42.688;23.344;2023-05-18T02:31:05;8.52;;;3.95;;
20026;SDS011;10174;42.688;23.344;2023-05-18T02:33:35;6.35;;;3.65;;
20026;SDS011;10174;42.688;23.344;2023-05-18T02:36:11;9.93;;;4.13;;
20026;SDS011;10174;42.688;23.344;2023-05-18T02:38:41;7.40;;;4.28;;
20026;SDS011;10174;42.688;23.344;2023-05-18T02:41:10;9.05;;;4.05;;
20026;SDS011;10174;42.688;23.344;2023-05-18T02:43:36;8.75;;;4.90;;
20026;SDS011;10174;42.688;23.344;2023-05-18T02:46:02;10.70;;;5.15;;
20026;SDS011;10174;42.688;23.344;2023-05-18T02:48:28;12.80;;;6.20;;
20026;SDS011;10174;42.688;23.344;2023-05-18T02:50:54;10.13;;;6.72;;
20026;SDS011;10174;42.688;23.344;2023-05-18T02:53:20;14.65;;;6.22;;
20026;SDS011;10174;42.688;23.344;2023-05-18T02:55:45;16.50;;;7.70;;
20026;SDS011;10174;42.688;23.344;2023-05-18T02:58:12;13.30;;;7.00;;
20026;SDS011;10174;42.688;23.344;2023-05-18T03:00:38;12.10;;;5.97;;
20026;SDS011;10174;42.688;23.344;2023-05-18T03:03:04;10.25;;;5.68;;
20026;SDS011;10174;42.688;23.344;2023-05-18T03:05:29;6.97;;;4.32;;
20026;SDS011;10174;42.688;23.344;2023-05-18T03:07:55;8.20;;;5.10;;
20026;SDS011;10174;42.688;23.344;2023-05-18T03:10:21;7.82;;;5.22;;
20026;SDS011;10174;42.688;23.344;2023-05-18T03:12:47;7.70;;;4.63;;
20026;SDS011;10174;42.688;23.344;2023-05-18T03:15:13;6.68;;;4.10;;
20026;SDS011;10174;42.688;23.344;2023-05-18T03:17:40;5.88;;;4.10;;
20026;SDS011;10174;42.688;23.344;2023-05-18T03:20:08;3.97;;;3.25;;
20026;SDS011;10174;42.688;23.344;2023-05-18T03:22:38;6.47;;;3.65;;
20026;SDS011;10174;42.688;23.344;2023-05-18T03:25:04;9.98;;;3.90;;
20026;SDS011;10174;42.688;23.344;2023-05-18T03:27:30;10.70;;;3.83;;
20026;SDS011;10174;42.688;23.344;2023-05-18T03:29:56;11.85;;;4.85;;
20026;SDS011;10174;42.688;23.344;2023-05-18T03:32:22;9.25;;;4.18;;
20026;SDS011;10174;42.688;23.344;2023-05-18T03:34:48;6.10;;;3.92;;
20026;SDS011;10174;42.688;23.344;2023-05-18T03:37:15;7.45;;;4.15;;
20026;SDS011;10174;42.688;23.344;2023-05-18T03:39:41;6.97;;;4.28;;
20026;SDS011;10174;42.688;23.344;2023-05-18T03:42:06;6.80;;;4.20;;
20026;SDS011;10174;42.688;23.344;2023-05-18T03:44:32;10.27;;;4.13;;
20026;SDS011;10174;42.688;23.344;2023-05-18T03:46:57;8.30;;;4.82;;
20026;SDS011;10174;42.688;23.344;2023-05-18T03:49:22;7.57;;;4.65;;
20026;SDS011;10174;42.688;23.344;2023-05-18T03:51:48;9.23;;;5.40;;
20026;SDS011;10174;42.688;23.344;2023-05-18T03:54:13;8.50;;;5.30;;
20026;SDS011;10174;42.688;23.344;2023-05-18T03:56:39;8.20;;;5.90;;
20026;SDS011;10174;42.688;23.344;2023-05-18T03:59:05;10.43;;;6.18;;
20026;SDS011;10174;42.688;23.344;2023-05-18T04:01:31;9.65;;;6.30;;
20026;SDS011;10174;42.688;23.344;2023-05-18T04:03:57;10.25;;;6.40;;
20026;SDS011;10174;42.688;23.344;2023-05-18T04:06:23;11.75;;;6.45;;
20026;SDS011;10174;42.688;23.344;2023-05-18T04:08:50;7.28;;;6.05;;
20026;SDS011;10174;42.688;23.344;2023-05-18T04:11:16;10.45;;;7.20;;
20026;SDS011;10174;42.688;23.344;2023-05-18T04:13:42;9.57;;;7.10;;
20026;SDS011;10174;42.688;23.344;2023-05-18T04:16:07;10.52;;;6.97;;
20026;SDS011;10174;42.688;23.344;2023-05-18T04:18:37;15.15;;;7.60;;
20026;SDS011;10174;42.688;23.344;2023-05-18T04:21:03;13.75;;;7.65;;
20026;SDS011;10174;42.688;23.344;2023-05-18T04:23:30;12.13;;;6.88;;
20026;SDS011;10174;42.688;23.344;2023-05-18T04:25:57;10.77;;;6.93;;
20026;SDS011;10174;42.688;23.344;2023-05-18T04:28:23;9.00;;;6.57;;
20026;SDS011;10174;42.688;23.344;2023-05-18T04:30:48;18.48;;;7.65;;
20026;SDS011;10174;42.688;23.344;2023-05-18T04:33:15;8.73;;;6.65;;
20026;SDS011;10174;42.688;23.344;2023-05-18T04:35:41;15.15;;;7.63;;
20026;SDS011;10174;42.688;23.344;2023-05-18T04:38:07;10.35;;;7.53;;
20026;SDS011;10174;42.688;23.344;2023-05-18T04:40:33;14.88;;;8.50;;
20026;SDS011;10174;42.688;23.344;2023-05-18T04:42:58;10.77;;;7.22;;
20026;SDS011;10174;42.688;23.344;2023-05-18T04:45:24;12.90;;;7.70;;
20026;SDS011;10174;42.688;23.344;2023-05-18T04:47:50;12.65;;;7.70;;
20026;SDS011;10174;42.688;23.344;2023-05-18T04:50:19;19.13;;;8.10;;
20026;SDS011;10174;42.688;23.344;2023-05-18T04:52:51;12.65;;;7.85;;
20026;SDS011;10174;42.688;23.344;2023-05-18T04:55:17;10.52;;;7.00;;
20026;SDS011;10174;42.688;23.344;2023-05-18T04:57:49;10.25;;;7.20;;
20026;SDS011;10174;42.688;23.344;2023-05-18T05:00:18;12.13;;;7.38;;
20026;SDS011;10174;42.688;23.344;2023-05-18T05:02:44;12.20;;;8.20;;
20026;SDS011;10174;42.688;23.344;2023-05-18T05:05:09;11.27;;;8.20;;
20026;SDS011;10174;42.688;23.344;2023-05-18T05:07:35;14.57;;;8.98;;
20026;SDS011;10174;42.688;23.344;2023-05-18T05:10:00;17.35;;;8.48;;
20026;SDS011;10174;42.688;23.344;2023-05-18T05:12:26;17.73;;;9.80;;
20026;SDS011;10174;42.688;23.344;2023-05-18T05:14:51;23.60;;;10.10;;
20026;SDS011;10174;42.688;23.344;2023-05-18T05:17:17;19.40;;;10.05;;
20026;SDS011;10174;42.688;23.344;2023-05-18T05:19:42;15.05;;;9.55;;
20026;SDS011;10174;42.688;23.344;2023-05-18T05:22:07;16.13;;;8.75;;
20026;SDS011;10174;42.688;23.344;2023-05-18T05:24:33;22.45;;;9.50;;
20026;SDS011;10174;42.688;23.344;2023-05-18T05:26:58;16.92;;;9.00;;
20026;SDS011;10174;42.688;23.344;2023-05-18T05:29:23;48.88;;;28.17;;
20026;SDS011;10174;42.688;23.344;2023-05-18T05:31:50;21.55;;;11.27;;
20026;SDS011;10174;42.688;23.344;2023-05-18T05:34:15;14.60;;;9.85;;
20026;SDS011;10174;42.688;23.344;2023-05-18T05:36:41;15.63;;;10.00;;
20026;SDS011;10174;42.688;23.344;2023-05-18T05:39:06;16.88;;;9.10;;
20026;SDS011;10174;42.688;23.344;2023-05-18T05:41:32;17.15;;;9.05;;
20026;SDS011;10174;42.688;23.344;2023-05-18T05:43:57;14.35;;;9.05;;
20026;SDS011;10174;42.688;23.344;2023-05-18T05:46:23;17.83;;;9.40;;
20026;SDS011;10174;42.688;23.344;2023-05-18T05:48:48;14.85;;;10.45;;
20026;SDS011;10174;42.688;23.344;2023-05-18T05:51:14;19.13;;;10.55;;
20026;SDS011;10174;42.688;23.344;2023-05-18T05:53:39;14.38;;;8.38;;
20026;SDS011;10174;42.688;23.344;2023-05-18T05:56:05;21.58;;;9.70;;
20026;SDS011;10174;42.688;23.344;2023-05-18T05:58:33;39.58;;;26.25;;
20026;SDS011;10174;42.688;23.344;2023-05-18T06:00:58;20.23;;;13.18;;
20026;SDS011;10174;42.688;23.344;2023-05-18T06:03:24;18.45;;;12.35;;
20026;SDS011;10174;42.688;23.344;2023-05-18T06:05:49;18.85;;;11.63;;
20026;SDS011;10174;42.688;23.344;2023-05-18T06:08:14;20.13;;;11.40;;
20026;SDS011;10174;42.688;23.344;2023-05-18T06:10:41;17.80;;;10.48;;
20026;SDS011;10174;42.688;23.344;2023-05-18T06:13:06;15.98;;;9.30;;
20026;SDS011;10174;42.688;23.344;2023-05-18T06:15:32;14.13;;;9.02;;
20026;SDS011;10174;42.688;23.344;2023-05-18T06:17:57;16.25;;;9.95;;
20026;SDS011;10174;42.688;23.344;2023-05-18T06:20:23;13.45;;;8.00;;
20026;SDS011;10174;42.688;23.344;2023-05-18T06:22:48;14.02;;;8.85;;
20026;SDS011;10174;42.688;23.344;2023-05-18T06:25:14;14.13;;;9.13;;
20026;SDS011;10174;42.688;23.344;2023-05-18T06:27:39;18.40;;;10.45;;
20026;SDS011;10174;42.688;23.344;2023-05-18T06:30:06;15.50;;;11.48;;
20026;SDS011;10174;42.688;23.344;2023-05-18T06:32:34;19.75;;;11.45;;
20026;SDS011;10174;42.688;23.344;2023-05-18T06:35:01;19.15;;;11.93;;
20026;SDS011;10174;42.688;23.344;2023-05-18T06:37:28;19.10;;;11.98;;
20026;SDS011;10174;42.688;23.344;2023-05-18T06:39:53;18.08;;;11.23;;
20026;SDS011;10174;42.688;23.344;2023-05-18T06:42:19;20.73;;;11.23;;
20026;SDS011;10174;42.688;23.344;2023-05-18T06:44:44;20.10;;;10.52;;
20026;SDS011;10174;42.688;23.344;2023-05-18T06:47:10;19.23;;;10.25;;
20026;SDS011;10174;42.688;23.344;2023-05-18T06:49:35;18.05;;;10.30;;
20026;SDS011;10174;42.688;23.344;2023-05-18T06:52:01;19.27;;;10.23;;
20026;SDS011;10174;42.688;23.344;2023-05-18T06:54:26;13.27;;;9.13;;
20026;SDS011;10174;42.688;23.344;2023-05-18T06:56:53;15.52;;;9.38;;
20026;SDS011;10174;42.688;23.344;2023-05-18T06:59:19;16.98;;;9.93;;
20026;SDS011;10174;42.688;23.344;2023-05-18T07:01:44;14.80;;;9.27;;
20026;SDS011;10174;42.688;23.344;2023-05-18T07:04:10;16.25;;;9.77;;
20026;SDS011;10174;42.688;23.344;2023-05-18T07:06:35;19.67;;;11.60;;
20026;SDS011;10174;42.688;23.344;2023-05-18T07:09:01;17.85;;;10.38;;
20026;SDS011;10174;42.688;23.344;2023-05-18T07:11:27;21.17;;;9.48;;
20026;SDS011;10174;42.688;23.344;2023-05-18T07:13:53;20.67;;;12.38;;
20026;SDS011;10174;42.688;23.344;2023-05-18T07:16:18;18.10;;;11.38;;
20026;SDS011;10174;42.688;23.344;2023-05-18T07:18:43;37.42;;;21.45;;
20026;SDS011;10174;42.688;23.344;2023-05-18T07:21:09;26.67;;;14.77;;
20026;SDS011;10174;42.688;23.344;2023-05-18T07:23:35;28.88;;;14.30;;
20026;SDS011;10174;42.688;23.344;2023-05-18T07:26:00;22.15;;;10.10;;
20026;SDS011;10174;42.688;23.344;2023-05-18T07:28:26;19.02;;;11.18;;
20026;SDS011;10174;42.688;23.344;2023-05-18T07:30:51;22.30;;;14.02;;
20026;SDS011;10174;42.688;23.344;2023-05-18T07:33:17;29.30;;;13.25;;
20026;SDS011;10174;42.688;23.344;2023-05-18T07:35:42;26.05;;;13.10;;
20026;SDS011;10174;42.688;23.344;2023-05-18T07:38:08;20.30;;;13.15;;
20026;SDS011;10174;42.688;23.344;2023-05-18T07:40:33;22.10;;;13.65;;
20026;SDS011;10174;42.688;23.344;2023-05-18T07:42:58;26.08;;;13.57;;
20026;SDS011;10174;42.688;23.344;2023-05-18T07:45:24;25.63;;;13.90;;
20026;SDS011;10174;42.688;23.344;2023-05-18T07:47:49;36.72;;;16.40;;
20026;SDS011;10174;42.688;23.344;2023-05-18T07:50:15;46.85;;;26.48;;
20026;SDS011;10174;42.688;23.344;2023-05-18T07:52:40;25.73;;;12.45;;
20026;SDS011;10174;42.688;23.344;2023-05-18T07:55:06;23.08;;;12.75;;
20026;SDS011;10174;42.688;23.344;2023-05-18T07:57:33;31.08;;;13.40;;
20026;SDS011;10174;42.688;23.344;2023-05-18T07:59:59;22.95;;;12.05;;
20026;SDS011;10174;42.688;23.344;2023-05-18T08:02:24;27.20;;;13.15;;
20026;SDS011;10174;42.688;23.344;2023-05-18T08:04:50;38.80;;;15.10;;
20026;SDS011;10174;42.688;23.344;2023-05-18T08:07:15;27.58;;;13.88;;
20026;SDS011;10174;42.688;23.344;2023-05-18T08:09:42;24.90;;;14.02;;
20026;SDS011;10174;42.688;23.344;2023-05-18T08:12:08;35.65;;;16.00;;
20026;SDS011;10174;42.688;23.344;2023-05-18T08:14:34;33.55;;;11.10;;
20026;SDS011;10174;42.688;23.344;2023-05-18T08:16:59;25.30;;;11.77;;
20026;SDS011;10174;42.688;23.344;2023-05-18T08:19:25;25.90;;;12.90;;
20026;SDS011;10174;42.688;23.344;2023-05-18T08:21:50;21.02;;;12.20;;
20026;SDS011;10174;42.688;23.344;2023-05-18T08:24:16;22.33;;;11.73;;
20026;SDS011;10174;42.688;23.344;2023-05-18T08:26:41;25.05;;;13.27;;
20026;SDS011;10174;42.688;23.344;2023-05-18T08:29:06;26.92;;;11.90;;
20026;SDS011;10174;42.688;23.344;2023-05-18T08:31:38;22.80;;;12.40;;
20026;SDS011;10174;42.688;23.344;2023-05-18T08:34:05;37.97;;;15.05;;
20026;SDS011;10174;42.688;23.344;2023-05-18T08:36:32;35.55;;;14.40;;
20026;SDS011;10174;42.688;23.344;2023-05-18T08:38:58;44.45;;;15.07;;
20026;SDS011;10174;42.688;23.344;2023-05-18T08:41:28;31.60;;;14.10;;
20026;SDS011;10174;42.688;23.344;2023-05-18T08:43:59;49.00;;;19.35;;
20026;SDS011;10174;42.688;23.344;2023-05-18T08:46:28;46.58;;;21.50;;
20026;SDS011;10174;42.688;23.344;2023-05-18T08:48:58;50.88;;;16.63;;
20026;SDS011;10174;42.688;23.344;2023-05-18T08:51:25;49.67;;;21.23;;
20026;SDS011;10174;42.688;23.344;2023-05-18T08:53:53;59.28;;;23.00;;
20026;SDS011;10174;42.688;23.344;2023-05-18T08:56:23;59.25;;;20.52;;
20026;SDS011;10174;42.688;23.344;2023-05-18T08:58:51;53.72;;;19.77;;
20026;SDS011;10174;42.688;23.344;2023-05-18T09:01:20;49.17;;;18.15;;
20026;SDS011;10174;42.688;23.344;2023-05-18T09:03:52;38.70;;;16.15;;
20026;SDS011;10174;42.688;23.344;2023-05-18T09:06:18;33.50;;;14.32;;
20026;SDS011;10174;42.688;23.344;2023-05-18T09:08:45;42.42;;;18.52;;
20026;SDS011;10174;42.688;23.344;2023-05-18T09:11:10;28.75;;;14.02;;
20026;SDS011;10174;42.688;23.344;2023-05-18T09:13:36;28.20;;;13.68;;
20026;SDS011;10174;42.688;23.344;2023-05-18T09:16:03;34.72;;;15.00;;
20026;SDS011;10174;42.688;23.344;2023-05-18T09:18:28;46.83;;;18.00;;
20026;SDS011;10174;42.688;23.344;2023-05-18T09:20:54;44.20;;;17.35;;
20026;SDS011;10174;42.688;23.344;2023-05-18T09:23:20;52.13;;;22.45;;
20026;SDS011;10174;42.688;23.344;2023-05-18T09:25:45;46.13;;;17.38;;
20026;SDS011;10174;42.688;23.344;2023-05-18T09:28:21;39.67;;;16.67;;
20026;SDS011;10174;42.688;23.344;2023-05-18T09:30:50;31.83;;;14.90;;
20026;SDS011;10174;42.688;23.344;2023-05-18T09:33:17;36.13;;;14.00;;
20026;SDS011;10174;42.688;23.344;2023-05-18T09:35:45;30.02;;;13.57;;
20026;SDS011;10174;42.688;23.344;2023-05-18T09:38:14;33.13;;;15.60;;
20026;SDS011;10174;42.688;23.344;2023-05-18T09:40:45;47.50;;;18.50;;
20026;SDS011;10174;42.688;23.344;2023-05-18T09:43:12;40.45;;;18.98;;
20026;SDS011;10174;42.688;23.344;2023-05-18T09:45:42;36.40;;;16.75;;
20026;SDS011;10174;42.688;23.344;2023-05-18T09:48:09;40.85;;;17.85;;
20026;SDS011;10174;42.688;23.344;2023-05-18T09:50:35;44.05;;;19.65;;
20026;SDS011;10174;42.688;23.344;2023-05-18T09:53:02;33.67;;;15.70;;
20026;SDS011;10174;42.688;23.344;2023-05-18T09:55:32;42.65;;;19.75;;
20026;SDS011;10174;42.688;23.344;2023-05-18T09:58:01;27.95;;;13.98;;
20026;SDS011;10174;42.688;23.344;2023-05-18T10:00:28;28.10;;;14.38;;
20026;SDS011;10174;42.688;23.344;2023-05-18T10:02:54;25.65;;;14.05;;
20026;SDS011;10174;42.688;23.344;2023-05-18T10:05:21;41.42;;;18.70;;
20026;SDS011;10174;42.688;23.344;2023-05-18T10:07:49;43.47;;;18.48;;
20026;SDS011;10174;42.688;23.344;2023-05-18T10:10:18;44.33;;;18.35;;
20026;SDS011;10174;42.688;23.344;2023-05-18T10:12:45;32.10;;;15.23;;
20026;SDS011;10174;42.688;23.344;2023-05-18T10:15:15;33.80;;;15.70;;
20026;SDS011;10174;42.688;23.344;2023-05-18T10:17:43;23.90;;;13.60;;
20026;SDS011;10174;42.688;23.344;2023-05-18T10:20:10;33.30;;;14.70;;
20026;SDS011;10174;42.688;23.344;2023-05-18T10:22:39;40.72;;;16.65;;
20026;SDS011;10174;42.688;23.344;2023-05-18T10:25:06;67.32;;;24.77;;
20026;SDS011;10174;42.688;23.344;2023-05-18T10:27:35;31.45;;;13.50;;
20026;SDS011;10174;42.688;23.344;2023-05-18T10:30:02;43.72;;;19.15;;
20026;SDS011;10174;42.688;23.344;2023-05-18T10:32:32;32.40;;;17.65;;
20026;SDS011;10174;42.688;23.344;2023-05-18T10:35:00;87.60;;;33.05;;
20026;SDS011;10174;42.688;23.344;2023-05-18T10:37:27;40.08;;;16.95;;
20026;SDS011;10174;42.688;23.344;2023-05-18T10:39:55;43.70;;;15.27;;
20026;SDS011;10174;42.688;23.344;2023-05-18T10:42:22;38.15;;;14.52;;
20026;SDS011;10174;42.688;23.344;2023-05-18T10:44:51;30.35;;;13.57;;
20026;SDS011;10174;42.688;23.344;2023-05-18T10:47:18;29.17;;;12.20;;
20026;SDS011;10174;42.688;23.344;2023-05-18T10:49:46;28.40;;;11.38;;
20026;SDS011;10174;42.688;23.344;2023-05-18T10:52:13;43.10;;;17.10;;
20026;SDS011;10174;42.688;23.344;2023-05-18T10:54:41;95.28;;;35.97;;
20026;SDS011;10174;42.688;23.344;2023-05-18T10:57:06;118.80;;;43.95;;
20026;SDS011;10174;42.688;23.344;2023-05-18T10:59:40;46.45;;;19.10;;
20026;SDS011;10174;42.688;23.344;2023-05-18T11:02:07;65.63;;;23.55;;
20026;SDS011;10174;42.688;23.344;2023-05-18T11:04:37;60.58;;;26.92;;
20026;SDS011;10174;42.688;23.344;2023-05-18T11:07:05;32.78;;;16.50;;
20026;SDS011;10174;42.688;23.344;2023-05-18T11:09:35;32.03;;;15.05;;
20026;SDS011;10174;42.688;23.344;2023-05-18T11:12:00;32.08;;;15.30;;
20026;SDS011;10174;42.688;23.344;2023-05-18T11:14:27;47.15;;;17.85;;
20026;SDS011;10174;42.688;23.344;2023-05-18T11:17:13;34.92;;;18.83;;
20026;SDS011;10174;42.688;23.344;2023-05-18T11:27:50;33.22;;;16.40;;
20026;SDS011;10174;42.688;23.344;2023-05-18T11:36:34;26.55;;;12.13;;
20026;SDS011;10174;42.688;23.344;2023-05-18T11:39:09;24.20;;;11.45;;
20026;SDS011;10174;42.688;23.344;2023-05-18T11:41:36;15.90;;;9.55;;
20026;SDS011;10174;42.688;23.344;2023-05-18T11:46:51;19.35;;;8.80;;
20026;SDS011;10174;42.688;23.344;2023-05-18T11:51:56;24.85;;;8.82;;
20026;SDS011;10174;42.688;23.344;2023-05-18T11:54:43;16.23;;;7.38;;
20026;SDS011;10174;42.688;23.344;2023-05-18T11:57:13;15.65;;;7.20;;
20026;SDS011;10174;42.688;23.344;2023-05-18T12:00:04;20.30;;;7.43;;
20026;SDS011;10174;42.688;23.344;2023-05-18T12:02:32;20.33;;;6.80;;
20026;SDS011;10174;42.688;23.344;2023-05-18T12:04:59;24.90;;;7.60;;
20026;SDS011;10174;42.688;23.344;2023-05-18T12:07:26;18.65;;;7.57;;
20026;SDS011;10174;42.688;23.344;2023-05-18T12:10:03;21.92;;;8.18;;
20026;SDS011;10174;42.688;23.344;2023-05-18T12:12:31;11.75;;;6.22;;
20026;SDS011;10174;42.688;23.344;2023-05-18T12:14:58;14.40;;;6.85;;
20026;SDS011;10174;42.688;23.344;2023-05-18T12:17:38;19.67;;;6.43;;
20026;SDS011;10174;42.688;23.344;2023-05-18T12:20:08;12.90;;;7.40;;
20026;SDS011;10174;42.688;23.344;2023-05-18T12:22:35;15.50;;;6.72;;
20026;SDS011;10174;42.688;23.344;2023-05-18T12:25:02;12.48;;;7.03;;
20026;SDS011;10174;42.688;23.344;2023-05-18T12:27:28;12.02;;;7.30;;
20026;SDS011;10174;42.688;23.344;2023-05-18T12:29:53;17.00;;;8.55;;
20026;SDS011;10174;42.688;23.344;2023-05-18T12:32:18;17.90;;;7.95;;
20026;SDS011;10174;42.688;23.344;2023-05-18T12:34:44;25.08;;;10.25;;
20026;SDS011;10174;42.688;23.344;2023-05-18T12:37:10;125.15;;;69.22;;
20026;SDS011;10174;42.688;23.344;2023-05-18T12:39:35;24.85;;;12.30;;
20026;SDS011;10174;42.688;23.344;2023-05-18T12:42:34;19.77;;;10.93;;
20026;SDS011;10174;42.688;23.344;2023-05-18T12:44:53;16.20;;;8.07;;
20026;SDS011;10174;42.688;23.344;2023-05-18T12:47:18;15.20;;;7.80;;
20026;SDS011;10174;42.688;23.344;2023-05-18T12:49:47;11.85;;;7.13;;
20026;SDS011;10174;42.688;23.344;2023-05-18T12:52:14;13.70;;;8.27;;
20026;SDS011;10174;42.688;23.344;2023-05-18T12:55:14;13.27;;;7.88;;
20026;SDS011;10174;42.688;23.344;2023-05-18T12:57:34;16.08;;;8.60;;
20026;SDS011;10174;42.688;23.344;2023-05-18T13:00:05;15.48;;;8.70;;
20026;SDS011;10174;42.688;23.344;2023-05-18T13:02:35;14.02;;;7.70;;
20026;SDS011;10174;42.688;23.344;2023-05-18T13:05:08;13.77;;;8.65;;
20026;SDS011;10174;42.688;23.344;2023-05-18T13:07:36;13.20;;;8.57;;
20026;SDS011;10174;42.688;23.344;2023-05-18T13:10:09;13.73;;;8.60;;
20026;SDS011;10174;42.688;23.344;2023-05-18T13:12:40;12.75;;;8.20;;
20026;SDS011;10174;42.688;23.344;2023-05-18T13:20:16;15.77;;;8.43;;
20026;SDS011;10174;42.688;23.344;2023-05-18T13:22:41;16.65;;;8.05;;
20026;SDS011;10174;42.688;23.344;2023-05-18T13:25:08;14.75;;;8.27;;
20026;SDS011;10174;42.688;23.344;2023-05-18T13:27:33;16.52;;;8.82;;
20026;SDS011;10174;42.688;23.344;2023-05-18T13:29:59;18.77;;;9.32;;
20026;SDS011;10174;42.688;23.344;2023-05-18T13:32:25;17.95;;;9.65;;
20026;SDS011;10174;42.688;23.344;2023-05-18T13:34:51;24.23;;;10.93;;
20026;SDS011;10174;42.688;23.344;2023-05-18T13:37:17;20.70;;;9.77;;
20026;SDS011;10174;42.688;23.344;2023-05-18T13:39:43;16.33;;;9.65;;
20026;SDS011;10174;42.688;23.344;2023-05-18T13:42:08;21.92;;;9.80;;
20026;SDS011;10174;42.688;23.344;2023-05-18T13:44:34;53.60;;;27.02;;
20026;SDS011;10174;42.688;23.344;2023-05-18T13:46:59;30.65;;;16.23;;
20026;SDS011;10174;42.688;23.344;2023-05-18T13:49:25;18.17;;;9.43;;
20026;SDS011;10174;42.688;23.344;2023-05-18T13:51:50;12.27;;;8.25;;
20026;SDS011;10174;42.688;23.344;2023-05-18T13:54:16;13.05;;;8.05;;
20026;SDS011;10174;42.688;23.344;2023-05-18T13:56:41;16.77;;;7.88;;
20026;SDS011;10174;42.688;23.344;2023-05-18T13:59:06;13.25;;;7.47;;
20026;SDS011;10174;42.688;23.344;2023-05-18T14:01:32;20.80;;;12.15;;
20026;SDS011;10174;42.688;23.344;2023-05-18T14:03:58;10.52;;;5.40;;
20026;SDS011;10174;42.688;23.344;2023-05-18T14:06:23;7.38;;;4.95;;
20026;SDS011;10174;42.688;23.344;2023-05-18T14:08:51;9.68;;;4.28;;
20026;SDS011;10174;42.688;23.344;2023-05-18T14:11:17;7.22;;;4.15;;
20026;SDS011;10174;42.688;23.344;2023-05-18T14:13:42;6.18;;;4.20;;
20026;SDS011;10174;42.688;23.344;2023-05-18T14:16:07;10.15;;;4.47;;
20026;SDS011;10174;42.688;23.344;2023-05-18T14:18:33;8.23;;;4.30;;
20026;SDS011;10174;42.688;23.344;2023-05-18T14:20:58;17.60;;;11.30;;
20026;SDS011;10174;42.688;23.344;2023-05-18T14:23:26;6.63;;;4.50;;
20026;SDS011;10174;42.688;23.344;2023-05-18T14:25:52;11.05;;;4.25;;
20026;SDS011;10174;42.688;23.344;2023-05-18T14:28:17;11.23;;;4.93;;
20026;SDS011;10174;42.688;23.344;2023-05-18T14:30:43;9.02;;;5.22;;
20026;SDS011;10174;42.688;23.344;2023-05-18T14:33:08;11.57;;;5.43;;
20026;SDS011;10174;42.688;23.344;2023-05-18T14:35:33;10.43;;;6.05;;
20026;SDS011;10174;42.688;23.344;2023-05-18T14:37:59;9.18;;;6.45;;
20026;SDS011;10174;42.688;23.344;2023-05-18T14:40:25;14.65;;;6.55;;
20026;SDS011;10174;42.688;23.344;2023-05-18T14:42:50;26.50;;;11.35;;
20026;SDS011;10174;42.688;23.344;2023-05-18T14:45:15;16.25;;;8.32;;
20026;SDS011;10174;42.688;23.344;2023-05-18T14:47:41;14.52;;;7.90;;
20026;SDS011;10174;42.688;23.344;2023-05-18T14:50:07;16.60;;;7.70;;